Afon Alaw — 2FCZ7 — position and weather

sailwx.info

Track history (hours):
 
Tides and Currents Weather Stations Pressure Air Temp Water Temp Dewpoint Dewpoint Depression Visibility Wind Speed Wind Dir Waves Ship Positions

Afon Alaw

Last reported at 2018-May-26 10:49 UTC. Time now 2018-May-26 19:43 UTC.
Position N 53°51' W 003°05'.

Length 25 m; draft 2.6 m.

Type: Tug. MMSI: 235090202.

Date/timePositionNaut miles runAvg speedWind from/ knotsBaromVisibWave heightAir tempDewpointWater temp
2018-May-26 10:49N 53°51' W 003°05'0 0.0
2018-May-26 10:07N 53°52' W 003°05'0 0.0
2018-May-26 04:13N 53°51' W 003°05'0 0.0
2018-May-26 03:43N 53°51' W 003°05'0 0.0
2018-May-26 03:19N 53°51' W 003°05'0 0.0
2018-May-26 02:49N 53°51' W 003°05'0 0.0
2018-May-26 01:54N 53°51' W 003°05'0 0.0
2018-May-26 01:23N 53°51' W 003°05'0 0.0
2018-May-26 01:00N 53°51' W 003°05'0 0.0
2018-May-25 23:48N 53°51' W 003°05'0 0.0
2018-May-25 21:02N 53°52' W 003°05'1 0.1
2018-May-25 09:56N 53°51' W 003°04'0 0.0
2018-May-25 09:30N 53°51' W 003°04'0 0.6
2018-May-25 09:00N 53°52' W 003°04'0 0.1
2018-May-25 08:30N 53°52' W 003°04'1 0.6
2018-May-25 07:26N 53°52' W 003°04'0 0.2
2018-May-25 06:59N 53°52' W 003°04'1 0.6
2018-May-25 04:44N 53°51' W 003°05'0 0.1
2018-May-25 04:26N 53°51' W 003°06'0 0.0
2018-May-25 03:41N 53°51' W 003°05'0 0.1
2018-May-25 03:29N 53°51' W 003°06'0 0.0
2018-May-25 02:56N 53°51' W 003°06'0 0.0
2018-May-25 02:26N 53°51' W 003°06'0 0.0
2018-May-25 01:59N 53°51' W 003°05'0 0.0
2018-May-25 01:02N 53°51' W 003°06'0 0.0
2018-May-25 00:59N 53°51' W 003°06'0 0.0
2018-May-25 00:20N 53°51' W 003°06'0 0.0
2018-May-24 23:50N 53°51' W 003°06'0 0.0
2018-May-24 23:20N 53°51' W 003°06'0 0.1
2018-May-24 22:56N 53°51' W 003°06'0 0.0
2018-May-24 22:23N 53°51' W 003°06'0 0.0
2018-May-24 21:56N 53°51' W 003°06'0 0.0
2018-May-24 20:44N 53°51' W 003°06'1 0.1
2018-May-24 07:43N 53°52' W 003°04'0 0.2
2018-May-24 07:30N 53°52' W 003°04'1 0.2
2018-May-24 01:57N 53°51' W 003°06'0 0.0
2018-May-24 01:11N 53°51' W 003°06'0 0.0
2018-May-24 00:59N 53°51' W 003°06'0 0.0
2018-May-23 23:51N 53°51' W 003°06'0 0.0
2018-May-23 23:27N 53°51' W 003°06'0 0.0
2018-May-23 22:45N 53°51' W 003°06'0 0.0
2018-May-23 22:29N 53°51' W 003°06'0 0.0
2018-May-23 21:57N 53°51' W 003°06'0 0.0
2018-May-23 21:24N 53°51' W 003°06'0 0.0
2018-May-23 13:30N 53°51' W 003°06'0 0.0
2018-May-23 13:00N 53°51' W 003°06'0 0.0
2018-May-23 12:09N 53°51' W 003°05'0 0.0
2018-May-23 11:42N 53°51' W 003°06'0 0.0
2018-May-23 09:15N 53°51' W 003°06'0 0.0
2018-May-23 09:00N 53°51' W 003°06'0 0.3
2018-May-23 07:37N 53°52' W 003°05'1 2.0
2018-May-23 07:09N 53°52' W 003°03'0 0.6
2018-May-23 06:44N 53°52' W 003°04'0 0.1
2018-May-23 06:30N 53°52' W 003°04'0 0.4
2018-May-23 06:00N 53°52' W 003°03'1 0.9
2018-May-23 05:01N 53°52' W 003°05'1 0.0
2018-May-22 11:35N 53°51' W 003°05'0 0.0
2018-May-22 11:30N 53°51' W 003°05'0 0.0
2018-May-22 10:29N 53°51' W 003°06'8 0.6
2018-May-21 20:39N 53°48' W 003°18'1 8.7
2018-May-21 20:31N 53°47' W 003°20'6 8.5
2018-May-21 19:51N 53°44' W 003°28'3 8.0
2018-May-21 19:30N 53°43' W 003°32'4 7.9
2018-May-21 18:58N 53°41' W 003°38'4 8.1
2018-May-21 18:30N 53°39' W 003°44'4 8.4
2018-May-21 18:01N 53°37' W 003°50'4 7.7
2018-May-21 17:30N 53°36' W 003°57'6 8.8
2018-May-21 16:51N 53°34' W 004°05'  
Track history (hours):
 
Tides and Currents Weather Stations Pressure Air Temp Water Temp Dewpoint Dewpoint Depression Visibility Wind Speed Wind Dir Waves Ship Positions

Afon Alaw

Last reported at 2018-May-26 10:49 UTC. Time now 2018-May-26 19:43 UTC.
Position N 53°51' W 003°05'.

Length 25 m; draft 2.6 m.

Type: Tug. MMSI: 235090202.

Date/timePositionNaut miles runAvg speedWind from/ knotsBaromVisibWave heightAir tempDewpointWater temp
2018-May-26 10:49N 53°51' W 003°05'0 0.0
2018-May-26 10:07N 53°52' W 003°05'0 0.0
2018-May-26 04:13N 53°51' W 003°05'0 0.0
2018-May-26 03:43N 53°51' W 003°05'0 0.0
2018-May-26 03:19N 53°51' W 003°05'0 0.0
2018-May-26 02:49N 53°51' W 003°05'0 0.0
2018-May-26 01:54N 53°51' W 003°05'0 0.0
2018-May-26 01:23N 53°51' W 003°05'0 0.0
2018-May-26 01:00N 53°51' W 003°05'0 0.0
2018-May-25 23:48N 53°51' W 003°05'0 0.0
2018-May-25 21:02N 53°52' W 003°05'1 0.1
2018-May-25 09:56N 53°51' W 003°04'0 0.0
2018-May-25 09:30N 53°51' W 003°04'0 0.6
2018-May-25 09:00N 53°52' W 003°04'0 0.1
2018-May-25 08:30N 53°52' W 003°04'1 0.6
2018-May-25 07:26N 53°52' W 003°04'0 0.2
2018-May-25 06:59N 53°52' W 003°04'1 0.6
2018-May-25 04:44N 53°51' W 003°05'0 0.1
2018-May-25 04:26N 53°51' W 003°06'0 0.0
2018-May-25 03:41N 53°51' W 003°05'0 0.1
2018-May-25 03:29N 53°51' W 003°06'0 0.0
2018-May-25 02:56N 53°51' W 003°06'0 0.0
2018-May-25 02:26N 53°51' W 003°06'0 0.0
2018-May-25 01:59N 53°51' W 003°05'0 0.0
2018-May-25 01:02N 53°51' W 003°06'0 0.0
2018-May-25 00:59N 53°51' W 003°06'0 0.0
2018-May-25 00:20N 53°51' W 003°06'0 0.0
2018-May-24 23:50N 53°51' W 003°06'0 0.0
2018-May-24 23:20N 53°51' W 003°06'0 0.1
2018-May-24 22:56N 53°51' W 003°06'0 0.0
2018-May-24 22:23N 53°51' W 003°06'0 0.0
2018-May-24 21:56N 53°51' W 003°06'0 0.0
2018-May-24 20:44N 53°51' W 003°06'1 0.1
2018-May-24 07:43N 53°52' W 003°04'0 0.2
2018-May-24 07:30N 53°52' W 003°04'1 0.2
2018-May-24 01:57N 53°51' W 003°06'0 0.0
2018-May-24 01:11N 53°51' W 003°06'0 0.0
2018-May-24 00:59N 53°51' W 003°06'0 0.0
2018-May-23 23:51N 53°51' W 003°06'0 0.0
2018-May-23 23:27N 53°51' W 003°06'0 0.0
2018-May-23 22:45N 53°51' W 003°06'0 0.0
2018-May-23 22:29N 53°51' W 003°06'0 0.0
2018-May-23 21:57N 53°51' W 003°06'0 0.0
2018-May-23 21:24N 53°51' W 003°06'0 0.0
2018-May-23 13:30N 53°51' W 003°06'0 0.0
2018-May-23 13:00N 53°51' W 003°06'0 0.0
2018-May-23 12:09N 53°51' W 003°05'0 0.0
2018-May-23 11:42N 53°51' W 003°06'0 0.0
2018-May-23 09:15N 53°51' W 003°06'0 0.0
2018-May-23 09:00N 53°51' W 003°06'0 0.3
2018-May-23 07:37N 53°52' W 003°05'1 2.0
2018-May-23 07:09N 53°52' W 003°03'0 0.6
2018-May-23 06:44N 53°52' W 003°04'0 0.1
2018-May-23 06:30N 53°52' W 003°04'0 0.4
2018-May-23 06:00N 53°52' W 003°03'1 0.9
2018-May-23 05:01N 53°52' W 003°05'1 0.0
2018-May-22 11:35N 53°51' W 003°05'0 0.0
2018-May-22 11:30N 53°51' W 003°05'0 0.0
2018-May-22 10:29N 53°51' W 003°06'8 0.6
2018-May-21 20:39N 53°48' W 003°18'1 8.7
2018-May-21 20:31N 53°47' W 003°20'6 8.5
2018-May-21 19:51N 53°44' W 003°28'3 8.0
2018-May-21 19:30N 53°43' W 003°32'4 7.9
2018-May-21 18:58N 53°41' W 003°38'4 8.1
2018-May-21 18:30N 53°39' W 003°44'4 8.4
2018-May-21 18:01N 53°37' W 003°50'4 7.7
2018-May-21 17:30N 53°36' W 003°57'6 8.8
2018-May-21 16:51N 53°34' W 004°05'  

Dump ship's entire track history